sensor_id;sensor_type;location;lat;lon;timestamp;pressure;altitude;pressure_sealevel;temperature;humidity
76195;BME280;64964;48.694;21.206;2022-12-18T00:01:01;99108.13;;;-1.49;70.63
76195;BME280;64964;48.694;21.206;2022-12-18T00:03:32;99110.53;;;-1.44;70.65
76195;BME280;64964;48.694;21.206;2022-12-18T00:05:57;99116.56;;;-1.44;69.99
76195;BME280;64964;48.694;21.206;2022-12-18T00:08:23;99122.38;;;-1.39;70.16
76195;BME280;64964;48.694;21.206;2022-12-18T00:10:48;99124.00;;;-1.36;69.84
76195;BME280;64964;48.694;21.206;2022-12-18T00:13:14;99121.34;;;-1.35;69.90
76195;BME280;64964;48.694;21.206;2022-12-18T00:15:39;99131.59;;;-1.32;70.37
76195;BME280;64964;48.694;21.206;2022-12-18T00:18:05;99140.13;;;-1.30;69.97
76195;BME280;64964;48.694;21.206;2022-12-18T00:20:32;99137.41;;;-1.27;70.04
76195;BME280;64964;48.694;21.206;2022-12-18T00:23:00;99152.84;;;-1.23;69.97
76195;BME280;64964;48.694;21.206;2022-12-18T00:25:25;99152.72;;;-1.20;69.97
76195;BME280;64964;48.694;21.206;2022-12-18T00:27:51;99155.16;;;-1.17;69.91
76195;BME280;64964;48.694;21.206;2022-12-18T00:30:16;99154.28;;;-1.16;69.82
76195;BME280;64964;48.694;21.206;2022-12-18T00:32:41;99163.66;;;-1.14;69.89
76195;BME280;64964;48.694;21.206;2022-12-18T00:35:07;99166.88;;;-1.09;70.01
76195;BME280;64964;48.694;21.206;2022-12-18T00:37:33;99181.59;;;-1.09;69.47
76195;BME280;64964;48.694;21.206;2022-12-18T00:39:59;99170.34;;;-1.08;69.50
76195;BME280;64964;48.694;21.206;2022-12-18T00:42:24;99179.84;;;-1.09;69.04
76195;BME280;64964;48.694;21.206;2022-12-18T00:45:08;99185.84;;;-1.07;69.39
76195;BME280;64964;48.694;21.206;2022-12-18T00:47:33;99191.09;;;-1.08;69.24
76195;BME280;64964;48.694;21.206;2022-12-18T00:49:59;99199.00;;;-1.11;69.49
76195;BME280;64964;48.694;21.206;2022-12-18T00:52:25;99198.00;;;-1.09;69.44
76195;BME280;64964;48.694;21.206;2022-12-18T00:54:50;99204.00;;;-1.07;69.89
76195;BME280;64964;48.694;21.206;2022-12-18T00:57:15;99207.56;;;-1.09;69.18
76195;BME280;64964;48.694;21.206;2022-12-18T00:59:41;99209.06;;;-1.04;69.44
76195;BME280;64964;48.694;21.206;2022-12-18T01:02:06;99222.88;;;-1.03;69.11
76195;BME280;64964;48.694;21.206;2022-12-18T01:04:32;99217.69;;;-1.03;69.19
76195;BME280;64964;48.694;21.206;2022-12-18T01:06:58;99218.44;;;-1.01;69.29
76195;BME280;64964;48.694;21.206;2022-12-18T01:09:23;99212.50;;;-1.03;68.60
76195;BME280;64964;48.694;21.206;2022-12-18T01:11:49;99218.59;;;-1.04;69.10
76195;BME280;64964;48.694;21.206;2022-12-18T01:14:14;99217.72;;;-1.05;68.96
76195;BME280;64964;48.694;21.206;2022-12-18T01:16:40;99220.22;;;-1.02;69.25
76195;BME280;64964;48.694;21.206;2022-12-18T01:19:05;99220.22;;;-1.02;69.28
76195;BME280;64964;48.694;21.206;2022-12-18T01:21:30;99237.41;;;-0.99;69.27
76195;BME280;64964;48.694;21.206;2022-12-18T01:23:56;99240.00;;;-0.99;69.15
76195;BME280;64964;48.694;21.206;2022-12-18T01:26:23;99241.81;;;-1.01;68.72
76195;BME280;64964;48.694;21.206;2022-12-18T01:28:49;99244.34;;;-0.99;68.97
76195;BME280;64964;48.694;21.206;2022-12-18T01:33:41;99245.31;;;-1.02;69.27
76195;BME280;64964;48.694;21.206;2022-12-18T01:36:07;99253.09;;;-1.02;68.96
76195;BME280;64964;48.694;21.206;2022-12-18T01:38:33;99250.50;;;-1.02;69.04
76195;BME280;64964;48.694;21.206;2022-12-18T01:40:59;99256.63;;;-1.03;68.96
76195;BME280;64964;48.694;21.206;2022-12-18T01:43:49;99252.34;;;-1.04;68.21
76195;BME280;64964;48.694;21.206;2022-12-18T01:46:17;99255.81;;;-1.05;68.80
76195;BME280;64964;48.694;21.206;2022-12-18T01:48:43;99264.44;;;-1.05;69.28
76195;BME280;64964;48.694;21.206;2022-12-18T01:51:11;99256.81;;;-1.08;68.92
76195;BME280;64964;48.694;21.206;2022-12-18T01:53:39;99267.19;;;-1.08;69.21
76195;BME280;64964;48.694;21.206;2022-12-18T01:56:05;99273.41;;;-1.12;69.10
76195;BME280;64964;48.694;21.206;2022-12-18T01:58:48;99276.13;;;-1.15;68.62
76195;BME280;64964;48.694;21.206;2022-12-18T02:01:17;99275.31;;;-1.15;68.89
76195;BME280;64964;48.694;21.206;2022-12-18T02:03:43;99281.59;;;-1.21;68.71
76195;BME280;64964;48.694;21.206;2022-12-18T02:06:32;99284.31;;;-1.24;68.85
76195;BME280;64964;48.694;21.206;2022-12-18T02:09:11;99299.44;;;-1.34;68.56
76195;BME280;64964;48.694;21.206;2022-12-18T02:12:05;99292.69;;;-1.38;68.42
76195;BME280;64964;48.694;21.206;2022-12-18T02:17:41;99300.88;;;-1.48;68.85
76195;BME280;64964;48.694;21.206;2022-12-18T02:20:45;99307.84;;;-1.51;68.87
76195;BME280;64964;48.694;21.206;2022-12-18T02:23:11;99309.81;;;-1.56;69.04
76195;BME280;64964;48.694;21.206;2022-12-18T02:28:26;99319.53;;;-1.61;69.66
76195;BME280;64964;48.694;21.206;2022-12-18T02:30:56;99317.88;;;-1.63;69.54
76195;BME280;64964;48.694;21.206;2022-12-18T02:33:25;99324.88;;;-1.65;69.78
76195;BME280;64964;48.694;21.206;2022-12-18T02:35:53;99328.41;;;-1.66;69.83
76195;BME280;64964;48.694;21.206;2022-12-18T02:38:20;99325.06;;;-1.70;69.66
76195;BME280;64964;48.694;21.206;2022-12-18T02:40:46;99329.47;;;-1.72;69.85
76195;BME280;64964;48.694;21.206;2022-12-18T02:43:14;99332.22;;;-1.77;70.02
76195;BME280;64964;48.694;21.206;2022-12-18T02:45:48;99337.59;;;-1.81;70.19
76195;BME280;64964;48.694;21.206;2022-12-18T02:48:15;99343.81;;;-1.85;70.22
76195;BME280;64964;48.694;21.206;2022-12-18T02:51:29;99350.06;;;-1.91;70.22
76195;BME280;64964;48.694;21.206;2022-12-18T02:54:03;99354.53;;;-1.94;70.51
76195;BME280;64964;48.694;21.206;2022-12-18T02:56:56;99365.00;;;-1.97;70.61
76195;BME280;64964;48.694;21.206;2022-12-18T02:59:36;99364.44;;;-2.06;70.23
76195;BME280;64964;48.694;21.206;2022-12-18T03:02:20;99354.34;;;-2.13;70.83
76195;BME280;64964;48.694;21.206;2022-12-18T03:04:52;99358.81;;;-2.17;70.80
76195;BME280;64964;48.694;21.206;2022-12-18T03:07:27;99369.22;;;-2.18;70.67
76195;BME280;64964;48.694;21.206;2022-12-18T03:09:54;99369.41;;;-2.23;70.69
76195;BME280;64964;48.694;21.206;2022-12-18T03:12:31;99370.41;;;-2.27;70.59
76195;BME280;64964;48.694;21.206;2022-12-18T03:15:09;99362.81;;;-2.32;70.65
76195;BME280;64964;48.694;21.206;2022-12-18T03:17:36;99377.56;;;-2.34;70.83
76195;BME280;64964;48.694;21.206;2022-12-18T03:20:11;99378.44;;;-2.35;70.50
76195;BME280;64964;48.694;21.206;2022-12-18T03:22:38;99378.50;;;-2.36;70.89
76195;BME280;64964;48.694;21.206;2022-12-18T03:25:06;99371.81;;;-2.42;70.48
76195;BME280;64964;48.694;21.206;2022-12-18T03:27:33;99379.69;;;-2.45;71.01
76195;BME280;64964;48.694;21.206;2022-12-18T03:30:07;99386.66;;;-2.47;71.07
76195;BME280;64964;48.694;21.206;2022-12-18T03:32:39;99392.06;;;-2.53;71.20
76195;BME280;64964;48.694;21.206;2022-12-18T03:35:08;99409.50;;;-2.58;71.16
76195;BME280;64964;48.694;21.206;2022-12-18T03:37:36;99409.00;;;-2.69;71.61
76195;BME280;64964;48.694;21.206;2022-12-18T03:40:03;99414.28;;;-2.72;71.82
76195;BME280;64964;48.694;21.206;2022-12-18T03:42:34;99411.16;;;-2.82;71.75
76195;BME280;64964;48.694;21.206;2022-12-18T03:45:24;99416.34;;;-2.82;71.82
76195;BME280;64964;48.694;21.206;2022-12-18T03:48:03;99413.06;;;-2.87;71.74
76195;BME280;64964;48.694;21.206;2022-12-18T03:53:22;99429.81;;;-2.99;72.17
76195;BME280;64964;48.694;21.206;2022-12-18T03:55:50;99433.41;;;-3.03;71.90
76195;BME280;64964;48.694;21.206;2022-12-18T03:58:19;99425.72;;;-3.05;72.12
76195;BME280;64964;48.694;21.206;2022-12-18T04:00:47;99425.13;;;-3.14;72.21
76195;BME280;64964;48.694;21.206;2022-12-18T04:03:13;99433.72;;;-3.12;72.22
76195;BME280;64964;48.694;21.206;2022-12-18T04:05:43;99444.09;;;-3.14;72.26
76195;BME280;64964;48.694;21.206;2022-12-18T04:08:09;99447.72;;;-3.19;72.46
76195;BME280;64964;48.694;21.206;2022-12-18T04:10:34;99451.22;;;-3.20;72.36
76195;BME280;64964;48.694;21.206;2022-12-18T04:13:00;99453.88;;;-3.23;72.40
76195;BME280;64964;48.694;21.206;2022-12-18T04:15:26;99452.22;;;-3.26;72.51
76195;BME280;64964;48.694;21.206;2022-12-18T04:17:51;99456.69;;;-3.31;72.72
76195;BME280;64964;48.694;21.206;2022-12-18T04:20:16;99461.09;;;-3.35;72.64
76195;BME280;64964;48.694;21.206;2022-12-18T04:22:42;99463.75;;;-3.36;72.80
76195;BME280;64964;48.694;21.206;2022-12-18T04:25:08;99475.06;;;-3.40;72.75
76195;BME280;64964;48.694;21.206;2022-12-18T04:27:33;99479.34;;;-3.39;72.59
76195;BME280;64964;48.694;21.206;2022-12-18T04:29:59;99472.56;;;-3.43;72.70
76195;BME280;64964;48.694;21.206;2022-12-18T04:32:24;99480.38;;;-3.45;72.65
76195;BME280;64964;48.694;21.206;2022-12-18T04:34:50;99482.22;;;-3.48;72.52
76195;BME280;64964;48.694;21.206;2022-12-18T04:37:15;99485.00;;;-3.55;72.56
76195;BME280;64964;48.694;21.206;2022-12-18T04:39:40;99496.19;;;-3.56;72.76
76195;BME280;64964;48.694;21.206;2022-12-18T04:42:06;99495.50;;;-3.61;72.88
76195;BME280;64964;48.694;21.206;2022-12-18T04:44:31;99499.13;;;-3.68;72.57
76195;BME280;64964;48.694;21.206;2022-12-18T04:46:56;99503.47;;;-3.68;72.63
76195;BME280;64964;48.694;21.206;2022-12-18T04:49:22;99505.19;;;-3.69;72.79
76195;BME280;64964;48.694;21.206;2022-12-18T04:51:47;99517.41;;;-3.74;72.90
76195;BME280;64964;48.694;21.206;2022-12-18T04:54:12;99524.25;;;-3.71;72.74
76195;BME280;64964;48.694;21.206;2022-12-18T04:56:38;99520.97;;;-3.78;72.90
76195;BME280;64964;48.694;21.206;2022-12-18T04:59:03;99524.47;;;-3.81;72.87
76195;BME280;64964;48.694;21.206;2022-12-18T05:01:29;99536.53;;;-3.81;72.65
76195;BME280;64964;48.694;21.206;2022-12-18T05:03:55;99537.44;;;-3.82;72.92
76195;BME280;64964;48.694;21.206;2022-12-18T05:06:20;99533.25;;;-3.86;72.90
76195;BME280;64964;48.694;21.206;2022-12-18T05:08:45;99532.34;;;-3.85;72.59
76195;BME280;64964;48.694;21.206;2022-12-18T05:11:14;99539.38;;;-3.90;72.85
76195;BME280;64964;48.694;21.206;2022-12-18T05:13:41;99543.66;;;-3.89;72.93
76195;BME280;64964;48.694;21.206;2022-12-18T05:16:07;99544.69;;;-3.95;72.63
76195;BME280;64964;48.694;21.206;2022-12-18T05:18:33;99555.91;;;-3.96;72.48
76195;BME280;64964;48.694;21.206;2022-12-18T05:20:58;99551.72;;;-4.02;72.60
76195;BME280;64964;48.694;21.206;2022-12-18T05:23:24;99561.31;;;-4.05;72.65
76195;BME280;64964;48.694;21.206;2022-12-18T05:25:55;99565.72;;;-4.09;72.77
76195;BME280;64964;48.694;21.206;2022-12-18T05:28:22;99570.06;;;-4.11;72.53
76195;BME280;64964;48.694;21.206;2022-12-18T05:30:52;99579.59;;;-4.14;72.42
76195;BME280;64964;48.694;21.206;2022-12-18T05:33:18;99582.44;;;-4.23;72.80
76195;BME280;64964;48.694;21.206;2022-12-18T05:35:44;99578.16;;;-4.24;72.76
76195;BME280;64964;48.694;21.206;2022-12-18T05:38:10;99580.81;;;-4.28;72.57
76195;BME280;64964;48.694;21.206;2022-12-18T05:40:35;99575.75;;;-4.32;72.69
76195;BME280;64964;48.694;21.206;2022-12-18T05:43:01;99579.16;;;-4.30;72.73
76195;BME280;64964;48.694;21.206;2022-12-18T05:45:27;99585.25;;;-4.33;72.59
76195;BME280;64964;48.694;21.206;2022-12-18T05:47:52;99587.78;;;-4.31;72.92
76195;BME280;64964;48.694;21.206;2022-12-18T05:50:17;99600.84;;;-4.37;72.93
76195;BME280;64964;48.694;21.206;2022-12-18T05:52:43;99599.34;;;-4.46;72.94
76195;BME280;64964;48.694;21.206;2022-12-18T05:55:08;99609.53;;;-4.41;72.96
76195;BME280;64964;48.694;21.206;2022-12-18T05:57:33;99605.28;;;-4.42;72.79
76195;BME280;64964;48.694;21.206;2022-12-18T05:59:59;99613.09;;;-4.45;72.78
76195;BME280;64964;48.694;21.206;2022-12-18T06:02:24;99617.34;;;-4.44;72.88
76195;BME280;64964;48.694;21.206;2022-12-18T06:04:49;99625.09;;;-4.44;72.49
76195;BME280;64964;48.694;21.206;2022-12-18T06:07:15;99618.28;;;-4.47;72.65
76195;BME280;64964;48.694;21.206;2022-12-18T06:09:40;99625.22;;;-4.49;72.73
76195;BME280;64964;48.694;21.206;2022-12-18T06:12:06;99627.75;;;-4.47;72.76
76195;BME280;64964;48.694;21.206;2022-12-18T06:14:31;99628.63;;;-4.47;72.75
76195;BME280;64964;48.694;21.206;2022-12-18T06:16:56;99639.00;;;-4.50;72.76
76195;BME280;64964;48.694;21.206;2022-12-18T06:19:22;99636.47;;;-4.53;72.26
76195;BME280;64964;48.694;21.206;2022-12-18T06:21:47;99639.06;;;-4.53;72.47
76195;BME280;64964;48.694;21.206;2022-12-18T06:24:14;99643.44;;;-4.55;72.15
76195;BME280;64964;48.694;21.206;2022-12-18T06:26:39;99639.09;;;-4.55;72.23
76195;BME280;64964;48.694;21.206;2022-12-18T06:29:05;99645.22;;;-4.59;72.29
76195;BME280;64964;48.694;21.206;2022-12-18T06:31:31;99646.88;;;-4.56;72.24
76195;BME280;64964;48.694;21.206;2022-12-18T06:33:56;99653.88;;;-4.61;72.27
76195;BME280;64964;48.694;21.206;2022-12-18T06:36:22;99652.13;;;-4.61;72.36
76195;BME280;64964;48.694;21.206;2022-12-18T06:38:47;99654.69;;;-4.59;72.37
76195;BME280;64964;48.694;21.206;2022-12-18T06:41:14;99654.75;;;-4.62;72.32
76195;BME280;64964;48.694;21.206;2022-12-18T06:43:41;99659.91;;;-4.62;72.48
76195;BME280;64964;48.694;21.206;2022-12-18T06:46:06;99653.88;;;-4.61;72.33
76195;BME280;64964;48.694;21.206;2022-12-18T06:48:32;99660.66;;;-4.57;72.28
76195;BME280;64964;48.694;21.206;2022-12-18T06:50:58;99658.88;;;-4.54;72.14
76195;BME280;64964;48.694;21.206;2022-12-18T06:53:23;99667.63;;;-4.61;71.82
76195;BME280;64964;48.694;21.206;2022-12-18T06:55:49;99674.47;;;-4.58;72.25
76195;BME280;64964;48.694;21.206;2022-12-18T06:58:14;99676.97;;;-4.55;72.22
76195;BME280;64964;48.694;21.206;2022-12-18T07:00:39;99676.88;;;-4.52;72.08
76195;BME280;64964;48.694;21.206;2022-12-18T07:03:05;99677.88;;;-4.58;71.89
76195;BME280;64964;48.694;21.206;2022-12-18T07:05:31;99680.28;;;-4.50;72.07
76195;BME280;64964;48.694;21.206;2022-12-18T07:07:56;99688.78;;;-4.45;72.34
76195;BME280;64964;48.694;21.206;2022-12-18T07:10:21;99688.66;;;-4.40;71.94
76195;BME280;64964;48.694;21.206;2022-12-18T07:12:47;99693.81;;;-4.39;71.76
76195;BME280;64964;48.694;21.206;2022-12-18T07:15:12;99695.41;;;-4.35;71.89
76195;BME280;64964;48.694;21.206;2022-12-18T07:17:37;99701.38;;;-4.31;71.59
76195;BME280;64964;48.694;21.206;2022-12-18T07:20:03;99699.56;;;-4.26;71.81
76195;BME280;64964;48.694;21.206;2022-12-18T07:22:29;99703.66;;;-4.19;72.01
76195;BME280;64964;48.694;21.206;2022-12-18T07:24:54;99713.88;;;-4.14;71.50
76195;BME280;64964;48.694;21.206;2022-12-18T07:27:20;99710.34;;;-4.09;71.23
76195;BME280;64964;48.694;21.206;2022-12-18T07:29:46;99719.59;;;-4.00;71.50
76195;BME280;64964;48.694;21.206;2022-12-18T07:32:11;99721.22;;;-3.96;71.08
76195;BME280;64964;48.694;21.206;2022-12-18T07:34:36;99714.94;;;-3.86;71.10
76195;BME280;64964;48.694;21.206;2022-12-18T07:37:02;99723.53;;;-3.84;70.68
76195;BME280;64964;48.694;21.206;2022-12-18T07:39:27;99728.41;;;-3.73;70.54
76195;BME280;64964;48.694;21.206;2022-12-18T07:41:52;99732.53;;;-3.66;70.99
76195;BME280;64964;48.694;21.206;2022-12-18T07:44:36;99741.03;;;-3.61;70.16
76195;BME280;64964;48.694;21.206;2022-12-18T07:47:03;99747.56;;;-3.46;70.56
76195;BME280;64964;48.694;21.206;2022-12-18T07:49:28;99757.72;;;-3.38;69.90
76195;BME280;64964;48.694;21.206;2022-12-18T07:51:55;99759.97;;;-3.26;70.39
76195;BME280;64964;48.694;21.206;2022-12-18T07:54:22;99757.81;;;-3.10;69.97
76195;BME280;64964;48.694;21.206;2022-12-18T07:56:47;99757.16;;;-2.86;70.14
76195;BME280;64964;48.694;21.206;2022-12-18T07:59:12;99758.03;;;-2.54;67.75
76195;BME280;64964;48.694;21.206;2022-12-18T08:01:38;99751.72;;;-1.89;68.35
76195;BME280;64964;48.694;21.206;2022-12-18T08:04:03;99747.50;;;-1.14;66.84
76195;BME280;64964;48.694;21.206;2022-12-18T08:06:29;99757.31;;;-0.27;64.24
76195;BME280;64964;48.694;21.206;2022-12-18T08:08:55;99758.16;;;0.62;61.36
76195;BME280;64964;48.694;21.206;2022-12-18T08:11:22;99767.94;;;1.76;62.88
76195;BME280;64964;48.694;21.206;2022-12-18T08:13:48;99761.91;;;2.65;59.97
76195;BME280;64964;48.694;21.206;2022-12-18T08:16:13;99764.03;;;3.60;57.02
76195;BME280;64964;48.694;21.206;2022-12-18T08:18:38;99756.06;;;4.56;56.46
76195;BME280;64964;48.694;21.206;2022-12-18T08:21:09;99768.31;;;5.44;50.22
76195;BME280;64964;48.694;21.206;2022-12-18T08:23:35;99775.75;;;6.08;50.76
76195;BME280;64964;48.694;21.206;2022-12-18T08:26:01;99767.13;;;6.87;51.98
76195;BME280;64964;48.694;21.206;2022-12-18T08:28:26;99768.75;;;7.15;42.95
76195;BME280;64964;48.694;21.206;2022-12-18T08:30:52;99776.97;;;7.98;49.84
76195;BME280;64964;48.694;21.206;2022-12-18T08:33:17;99772.84;;;8.31;40.02
76195;BME280;64964;48.694;21.206;2022-12-18T08:35:43;99787.78;;;8.91;46.15
76195;BME280;64964;48.694;21.206;2022-12-18T08:38:08;99791.03;;;9.41;44.76
76195;BME280;64964;48.694;21.206;2022-12-18T08:40:33;99795.84;;;9.69;39.97
76195;BME280;64964;48.694;21.206;2022-12-18T08:42:59;99791.16;;;10.29;45.15
76195;BME280;64964;48.694;21.206;2022-12-18T08:45:43;99789.88;;;10.56;37.20
76195;BME280;64964;48.694;21.206;2022-12-18T08:48:08;99793.88;;;11.03;41.54
76195;BME280;64964;48.694;21.206;2022-12-18T08:50:34;99793.56;;;11.38;42.41
76195;BME280;64964;48.694;21.206;2022-12-18T08:53:00;99794.78;;;11.55;41.70
76195;BME280;64964;48.694;21.206;2022-12-18T08:55:25;99796.41;;;11.77;41.60
76195;BME280;64964;48.694;21.206;2022-12-18T08:57:51;99793.19;;;11.73;37.30
76195;BME280;64964;48.694;21.206;2022-12-18T09:00:17;99793.63;;;12.09;41.21
76195;BME280;64964;48.694;21.206;2022-12-18T09:02:43;99796.56;;;12.16;40.76
76195;BME280;64964;48.694;21.206;2022-12-18T09:05:08;99806.31;;;11.96;40.99
76195;BME280;64964;48.694;21.206;2022-12-18T09:07:34;99804.72;;;11.63;38.62
76195;BME280;64964;48.694;21.206;2022-12-18T09:09:59;99798.22;;;11.46;40.86
76195;BME280;64964;48.694;21.206;2022-12-18T09:12:25;99802.00;;;11.11;40.78
76195;BME280;64964;48.694;21.206;2022-12-18T09:14:50;99804.81;;;10.45;39.90
76195;BME280;64964;48.694;21.206;2022-12-18T09:17:16;99808.81;;;10.06;41.16
76195;BME280;64964;48.694;21.206;2022-12-18T09:19:41;99811.41;;;9.39;41.19
76195;BME280;64964;48.694;21.206;2022-12-18T09:22:06;99806.41;;;8.65;38.33
76195;BME280;64964;48.694;21.206;2022-12-18T09:24:32;99810.78;;;8.04;38.99
76195;BME280;64964;48.694;21.206;2022-12-18T09:26:57;99813.03;;;7.72;41.63
76195;BME280;64964;48.694;21.206;2022-12-18T09:29:23;99820.53;;;7.40;41.71
76195;BME280;64964;48.694;21.206;2022-12-18T09:31:49;99821.84;;;7.07;43.30
76195;BME280;64964;48.694;21.206;2022-12-18T09:34:15;99822.31;;;6.60;41.73
76195;BME280;64964;48.694;21.206;2022-12-18T09:36:40;99816.00;;;6.49;43.39
76195;BME280;64964;48.694;21.206;2022-12-18T09:39:05;99816.59;;;6.26;43.97
76195;BME280;64964;48.694;21.206;2022-12-18T09:44:28;99814.38;;;5.63;42.99
76195;BME280;64964;48.694;21.206;2022-12-18T09:47:06;99821.31;;;5.64;43.07
76195;BME280;64964;48.694;21.206;2022-12-18T09:49:37;99813.53;;;5.62;44.52
76195;BME280;64964;48.694;21.206;2022-12-18T09:52:09;99816.94;;;5.64;44.97
76195;BME280;64964;48.694;21.206;2022-12-18T09:54:39;99813.56;;;5.48;44.74
76195;BME280;64964;48.694;21.206;2022-12-18T09:57:05;99819.44;;;5.37;45.29
76195;BME280;64964;48.694;21.206;2022-12-18T09:59:35;99830.09;;;5.20;44.68
76195;BME280;64964;48.694;21.206;2022-12-18T10:02:14;99819.19;;;4.97;43.19
76195;BME280;64964;48.694;21.206;2022-12-18T10:04:40;99821.97;;;4.94;46.35
76195;BME280;64964;48.694;21.206;2022-12-18T10:07:18;99819.78;;;4.87;45.16
76195;BME280;64964;48.694;21.206;2022-12-18T10:12:25;99823.31;;;4.56;45.38
76195;BME280;64964;48.694;21.206;2022-12-18T10:25:55;99806.97;;;3.71;46.88
76195;BME280;64964;48.694;21.206;2022-12-18T10:28:22;99819.53;;;3.65;47.47
76195;BME280;64964;48.694;21.206;2022-12-18T10:30:48;99827.75;;;3.74;48.08
76195;BME280;64964;48.694;21.206;2022-12-18T10:33:16;99828.53;;;3.77;47.78
76195;BME280;64964;48.694;21.206;2022-12-18T10:35:42;99828.34;;;3.80;48.26
76195;BME280;64964;48.694;21.206;2022-12-18T10:44:12;99832.56;;;3.82;46.07
76195;BME280;64964;48.694;21.206;2022-12-18T10:46:37;99830.34;;;3.74;46.19
76195;BME280;64964;48.694;21.206;2022-12-18T10:49:03;99835.22;;;3.98;48.17
76195;BME280;64964;48.694;21.206;2022-12-18T10:51:32;99835.06;;;4.17;48.54
76195;BME280;64964;48.694;21.206;2022-12-18T10:56:45;99828.28;;;4.60;49.39
76195;BME280;64964;48.694;21.206;2022-12-18T10:59:13;99827.84;;;4.68;47.93
76195;BME280;64964;48.694;21.206;2022-12-18T11:02:00;99832.47;;;4.79;45.06
76195;BME280;64964;48.694;21.206;2022-12-18T11:04:28;99824.97;;;4.72;47.02
76195;BME280;64964;48.694;21.206;2022-12-18T11:09:27;99821.44;;;4.26;46.86
76195;BME280;64964;48.694;21.206;2022-12-18T11:11:59;99834.28;;;3.99;46.68
76195;BME280;64964;48.694;21.206;2022-12-18T11:14:52;99824.81;;;3.81;45.00
76195;BME280;64964;48.694;21.206;2022-12-18T11:19:43;99826.88;;;3.41;47.24
76195;BME280;64964;48.694;21.206;2022-12-18T11:22:27;99834.75;;;3.23;46.68
76195;BME280;64964;48.694;21.206;2022-12-18T11:27:26;99827.81;;;2.88;48.77
76195;BME280;64964;48.694;21.206;2022-12-18T11:30:13;99826.34;;;2.65;48.61
76195;BME280;64964;48.694;21.206;2022-12-18T11:32:48;99816.28;;;2.57;49.87
76195;BME280;64964;48.694;21.206;2022-12-18T11:37:48;99810.97;;;2.59;50.00
76195;BME280;64964;48.694;21.206;2022-12-18T11:40:19;99811.28;;;2.53;50.09
76195;BME280;64964;48.694;21.206;2022-12-18T11:43:02;99809.25;;;2.40;48.54
76195;BME280;64964;48.694;21.206;2022-12-18T11:45:34;99812.94;;;2.36;50.52
76195;BME280;64964;48.694;21.206;2022-12-18T11:48:06;99805.53;;;2.27;49.67
76195;BME280;64964;48.694;21.206;2022-12-18T11:50:50;99806.75;;;2.20;50.50
76195;BME280;64964;48.694;21.206;2022-12-18T11:53:17;99812.88;;;2.19;50.75
76195;BME280;64964;48.694;21.206;2022-12-18T12:01:15;99829.25;;;1.85;50.06
76195;BME280;64964;48.694;21.206;2022-12-18T12:06:40;99826.69;;;1.83;51.29
76195;BME280;64964;48.694;21.206;2022-12-18T12:19:43;99820.19;;;1.54;51.27
76195;BME280;64964;48.694;21.206;2022-12-18T12:25:21;99827.13;;;1.35;52.24
76195;BME280;64964;48.694;21.206;2022-12-18T12:28:25;99824.41;;;1.17;51.75
76195;BME280;64964;48.694;21.206;2022-12-18T12:31:04;99825.28;;;0.96;51.49
76195;BME280;64964;48.694;21.206;2022-12-18T12:36:12;99831.56;;;0.70;52.37
76195;BME280;64964;48.694;21.206;2022-12-18T12:38:42;99827.66;;;0.60;53.05
76195;BME280;64964;48.694;21.206;2022-12-18T12:41:14;99837.72;;;0.47;53.34
76195;BME280;64964;48.694;21.206;2022-12-18T12:44:04;99836.31;;;0.38;53.50
76195;BME280;64964;48.694;21.206;2022-12-18T12:46:34;99843.19;;;0.17;53.38
76195;BME280;64964;48.694;21.206;2022-12-18T12:49:02;99846.94;;;0.10;53.99
76195;BME280;64964;48.694;21.206;2022-12-18T12:51:36;99848.19;;;0.00;54.20
76195;BME280;64964;48.694;21.206;2022-12-18T12:54:04;99845.03;;;-0.08;54.09
76195;BME280;64964;48.694;21.206;2022-12-18T12:56:51;99848.69;;;-0.14;54.31
76195;BME280;64964;48.694;21.206;2022-12-18T13:02:10;99847.38;;;-0.26;54.96
76195;BME280;64964;48.694;21.206;2022-12-18T13:04:47;99854.47;;;-0.29;55.20
76195;BME280;64964;48.694;21.206;2022-12-18T13:07:19;99855.47;;;-0.33;55.22
76195;BME280;64964;48.694;21.206;2022-12-18T13:10:12;99862.53;;;-0.37;55.50
76195;BME280;64964;48.694;21.206;2022-12-18T13:15:25;99866.16;;;-0.42;55.79
76195;BME280;64964;48.694;21.206;2022-12-18T13:25:53;99893.31;;;-0.51;56.09
76195;BME280;64964;48.694;21.206;2022-12-18T13:28:22;99896.16;;;-0.57;56.40
76195;BME280;64964;48.694;21.206;2022-12-18T13:30:52;99910.06;;;-0.60;56.48
76195;BME280;64964;48.694;21.206;2022-12-18T13:43:45;99929.34;;;-0.65;57.05
76195;BME280;64964;48.694;21.206;2022-12-18T13:46:27;99925.97;;;-0.69;57.33
76195;BME280;64964;48.694;21.206;2022-12-18T13:49:00;99931.19;;;-0.69;57.07
76195;BME280;64964;48.694;21.206;2022-12-18T13:51:27;99925.97;;;-0.69;57.41
76195;BME280;64964;48.694;21.206;2022-12-18T13:53:58;99933.84;;;-0.70;57.62
76195;BME280;64964;48.694;21.206;2022-12-18T13:56:27;99950.41;;;-0.74;57.28
76195;BME280;64964;48.694;21.206;2022-12-18T13:59:12;99957.47;;;-0.80;58.20
76195;BME280;64964;48.694;21.206;2022-12-18T14:01:45;99952.25;;;-0.78;57.63
76195;BME280;64964;48.694;21.206;2022-12-18T14:04:18;99954.88;;;-0.80;57.79
76195;BME280;64964;48.694;21.206;2022-12-18T14:06:44;99954.19;;;-0.85;57.61
76195;BME280;64964;48.694;21.206;2022-12-18T14:09:14;99957.75;;;-0.87;57.88
76195;BME280;64964;48.694;21.206;2022-12-18T14:11:40;99951.75;;;-0.89;57.99
76195;BME280;64964;48.694;21.206;2022-12-18T14:14:14;99958.75;;;-0.91;58.03
76195;BME280;64964;48.694;21.206;2022-12-18T14:16:41;99955.34;;;-0.93;58.27
76195;BME280;64964;48.694;21.206;2022-12-18T14:19:12;99952.13;;;-1.02;58.30
76195;BME280;64964;48.694;21.206;2022-12-18T14:21:38;99955.63;;;-1.03;58.41
76195;BME280;64964;48.694;21.206;2022-12-18T14:24:21;99954.03;;;-1.07;57.78
76195;BME280;64964;48.694;21.206;2022-12-18T14:26:48;99955.25;;;-1.17;58.29
76195;BME280;64964;48.694;21.206;2022-12-18T14:29:28;99960.38;;;-1.15;58.41
76195;BME280;64964;48.694;21.206;2022-12-18T14:32:05;99954.47;;;-1.20;58.74
76195;BME280;64964;48.694;21.206;2022-12-18T14:34:30;99969.22;;;-1.22;58.53
76195;BME280;64964;48.694;21.206;2022-12-18T14:36:56;99966.97;;;-1.33;58.46